Time;durP1;ratioP1;P1;durP2;ratioP2;P2;SDS_P1;SDS_P2;PMS_P1;PMS_P2;Temp;Humidity;BMP_temperature;BMP_pressure;BME280_temperature;BME280_humidity;BME280_pressure;Samples;Min_cycle;Max_cycle;Signal;HPM_P1;HPM_P2
2021/11/17 02:26:54;;;;;;;32.27;23.87;;;;;;;5.40;80.67;99746.94;5027678;28;20598;-80
2021/11/17 02:29:50;;;;;;;30.47;22.83;;;;;;;5.49;80.17;99751.97;5025344;28;20242;-80
2021/11/17 02:32:46;;;;;;;28.90;23.77;;;;;;;5.41;80.22;99741.47;5023613;28;20631;-81
2021/11/17 02:38:44;;;;;;;27.73;21.13;;;;;;;5.51;80.28;99743.81;4983220;28;20235;-81
2021/11/17 02:41:41;;;;;;;32.27;22.83;;;;;;;5.48;80.61;99744.19;4986312;28;20207;-82
2021/11/17 02:44:18;;;;;;;30.60;22.43;;;;;;;5.42;80.30;99742.25;4987063;28;20255;-81
2021/11/17 02:47:01;;;;;;;30.97;23.53;;;;;;;5.43;80.70;99749.22;4985750;28;20278;-81
2021/11/17 02:50:06;;;;;;;28.77;22.73;;;;;;;5.40;80.48;99739.81;5033587;23;20230;-82
2021/11/17 02:52:45;;;;;;;29.87;23.27;;;;;;;5.45;79.80;99748.06;5028298;28;20220;-81
2021/11/17 02:55:37;;;;;;;30.83;21.80;;;;;;;5.28;80.41;99735.94;5081485;28;20607;-81
2021/11/17 02:58:42;;;;;;;29.43;23.03;;;;;;;5.25;81.00;99746.94;5033134;28;20233;-81
2021/11/17 03:01:22;;;;;;;30.57;22.27;;;;;;;5.16;80.59;99750.69;5064322;28;20229;-80
2021/11/17 03:04:25;;;;;;;29.73;22.97;;;;;;;5.03;81.37;99751.31;5064244;28;20255;-80
2021/11/17 03:07:10;;;;;;;30.30;22.97;;;;;;;4.95;80.99;99753.19;5017192;28;20235;-81
2021/11/17 03:09:54;;;;;;;29.27;22.23;;;;;;;4.96;81.20;99754.84;5066680;28;20299;-81
2021/11/17 03:12:47;;;;;;;29.50;21.87;;;;;;;4.87;81.22;99762.91;5067325;28;20232;-81
2021/11/17 03:15:35;;;;;;;29.30;22.50;;;;;;;4.85;81.42;99764.09;5035306;28;20240;-82
2021/11/17 03:18:05;;;;;;;31.53;22.57;;;;;;;4.82;81.20;99765.28;5064218;28;20240;-81
2021/11/17 03:21:07;;;;;;;31.83;22.97;;;;;;;4.84;81.26;99771.25;5048297;28;20613;-80
2021/11/17 03:24:06;;;;;;;31.13;22.17;;;;;;;4.87;81.59;99775.34;5077453;22;21303;-80
2021/11/17 03:27:00;;;;;;;31.13;22.57;;;;;;;4.87;81.46;99764.72;5042929;28;20221;-81
2021/11/17 03:29:38;;;;;;;28.10;21.37;;;;;;;4.84;81.05;99773.06;5084994;28;20212;-80
2021/11/17 03:32:15;;;;;;;26.97;21.57;;;;;;;4.83;81.45;99768.75;5107648;22;20216;-81
2021/11/17 03:35:06;;;;;;;28.50;22.33;;;;;;;4.82;81.47;99783.03;5084538;28;20224;-81
2021/11/17 03:37:42;;;;;;;28.93;22.80;;;;;;;4.81;81.54;99776.06;5094040;22;20219;-80
2021/11/17 03:40:18;;;;;;;29.63;22.43;;;;;;;4.80;81.24;99777.09;5065366;28;20594;-80
2021/11/17 03:43:25;;;;;;;30.57;21.80;;;;;;;4.81;81.12;99781.38;5084486;28;20234;-80
2021/11/17 03:46:18;;;;;;;30.67;21.87;;;;;;;4.80;81.13;99793.84;5082211;28;20224;-80
2021/11/17 03:48:54;;;;;;;32.10;23.73;;;;;;;4.83;81.42;99795.31;5084979;28;20336;-81
2021/11/17 03:51:42;;;;;;;30.30;21.70;;;;;;;4.81;80.77;99792.00;5083312;28;20228;-80
2021/11/17 03:54:22;;;;;;;30.57;22.00;;;;;;;4.85;81.34;99795.97;5086596;28;20224;-80
2021/11/17 03:57:19;;;;;;;28.77;21.70;;;;;;;4.82;81.17;99783.03;5080266;28;20235;-80
2021/11/17 03:59:46;;;;;;;30.87;22.77;;;;;;;4.84;80.83;99791.66;5047800;28;20255;-80
2021/11/17 04:02:33;;;;;;;28.70;22.53;;;;;;;4.82;81.03;99788.34;5081584;28;20319;-81
2021/11/17 04:05:09;;;;;;;30.93;22.93;;;;;;;4.85;81.54;99790.66;5083017;28;20254;-81
2021/11/17 04:08:05;;;;;;;32.07;23.97;;;;;;;4.85;81.74;99791.44;5103942;28;20572;-81
2021/11/17 04:10:40;;;;;;;31.33;23.03;;;;;;;4.92;81.91;99796.06;5104936;28;20245;-81
2021/11/17 04:13:35;;;;;;;30.00;22.70;;;;;;;4.92;81.52;99790.75;5088042;28;20717;-80
2021/11/17 04:16:20;;;;;;;28.70;22.23;;;;;;;4.93;81.86;99789.75;5101887;28;20512;-80
2021/11/17 04:19:08;;;;;;;29.10;21.80;;;;;;;4.93;81.38;99793.22;5085210;28;20281;-80
2021/11/17 04:21:46;;;;;;;30.57;22.97;;;;;;;4.97;81.47;99794.53;5066844;28;20224;-80
2021/11/17 04:24:37;;;;;;;28.83;21.73;;;;;;;4.95;80.87;99793.03;5100666;28;20240;-81
2021/11/17 04:27:07;;;;;;;26.70;21.23;;;;;;;4.98;81.21;99798.84;5056492;28;20276;-80
2021/11/17 04:29:47;;;;;;;28.57;21.23;;;;;;;4.92;81.26;99790.75;5089606;28;20262;-81
2021/11/17 04:32:19;;;;;;;27.73;22.87;;;;;;;5.02;80.94;99802.78;5088716;28;20229;-82
2021/11/17 04:35:19;;;;;;;29.03;21.30;;;;;;;5.04;80.99;99810.56;5089753;28;20235;-81
2021/11/17 04:38:03;;;;;;;29.17;22.10;;;;;;;5.07;80.67;99811.03;5089373;28;20244;-80
2021/11/17 04:40:59;;;;;;;27.63;20.77;;;;;;;5.04;80.77;99811.38;5089735;28;20235;-81
2021/11/17 04:43:49;;;;;;;25.50;20.13;;;;;;;5.07;81.04;99812.84;5089440;28;20232;-81
2021/11/17 04:46:32;;;;;;;28.23;21.43;;;;;;;5.12;80.96;99815.81;5105342;22;20220;-81
2021/11/17 04:49:20;;;;;;;28.03;20.77;;;;;;;5.08;80.76;99812.69;5052436;28;20289;-81
2021/11/17 04:52:07;;;;;;;26.73;21.13;;;;;;;5.05;80.49;99806.88;5091303;28;20280;-81
2021/11/17 04:55:07;;;;;;;27.27;20.87;;;;;;;5.04;80.53;99806.06;5070286;28;20651;-81
2021/11/17 04:57:53;;;;;;;28.87;21.37;;;;;;;5.04;80.59;99800.75;5072737;28;20235;-81
2021/11/17 05:00:56;;;;;;;27.23;21.53;;;;;;;5.17;80.40;99806.28;5055540;28;20631;-82
2021/11/17 05:03:43;;;;;;;28.13;21.73;;;;;;;5.12;81.10;99807.84;5089978;28;20188;-81
2021/11/17 05:06:53;;;;;;;28.80;22.17;;;;;;;5.17;80.83;99818.75;5085517;28;20225;-82
2021/11/17 05:09:23;;;;;;;31.00;21.33;;;;;;;5.19;80.79;99814.88;5090634;28;20224;-82
2021/11/17 05:12:09;;;;;;;27.37;21.20;;;;;;;5.18;80.83;99821.19;5088828;28;20205;-81
2021/11/17 05:15:13;;;;;;;30.20;22.07;;;;;;;5.22;81.07;99811.06;5088616;28;20235;-81
2021/11/17 05:17:55;;;;;;;29.63;22.77;;;;;;;5.25;80.72;99816.00;5072054;28;20229;-80
2021/11/17 05:20:30;;;;;;;29.33;24.07;;;;;;;5.27;80.58;99820.13;5089131;28;20663;-80
2021/11/17 05:23:19;;;;;;;31.57;24.33;;;;;;;5.28;80.70;99818.28;5087964;28;20550;-83
2021/11/17 05:26:07;;;;;;;27.27;22.57;;;;;;;5.27;80.58;99822.78;5086069;28;20232;-81
2021/11/17 05:29:23;;;;;;;31.70;23.03;;;;;;;5.30;80.23;99821.59;5066871;28;20250;-80
2021/11/17 05:32:21;;;;;;;29.23;21.13;;;;;;;5.38;80.23;99832.13;5032595;28;20259;-81
2021/11/17 05:34:57;;;;;;;27.63;20.77;;;;;;;5.41;80.79;99833.63;5085530;28;20225;-81
2021/11/17 05:37:33;;;;;;;28.97;21.53;;;;;;;5.43;80.55;99839.56;5082401;28;20567;-81
2021/11/17 05:40:22;;;;;;;29.63;22.40;;;;;;;5.42;80.73;99837.91;5081183;28;20266;-80
2021/11/17 05:43:08;;;;;;;29.27;22.80;;;;;;;5.43;80.54;99834.25;5087816;28;20189;-81
2021/11/17 05:46:03;;;;;;;30.47;21.73;;;;;;;5.44;80.70;99833.25;5067636;28;20300;-81
2021/11/17 05:49:06;;;;;;;28.70;20.57;;;;;;;5.43;81.01;99840.41;5067361;28;20229;-81
2021/11/17 05:51:56;;;;;;;28.67;21.13;;;;;;;5.50;81.28;99851.13;5047823;28;20225;-80
2021/11/17 05:54:28;;;;;;;26.40;20.60;;;;;;;5.47;80.83;99852.31;5065265;28;20641;-82
2021/11/17 05:57:13;;;;;;;29.13;22.63;;;;;;;5.45;80.45;99845.53;5047242;28;20225;-81
2021/11/17 06:00:26;;;;;;;29.53;22.50;;;;;;;5.46;80.86;99853.31;5034784;28;20234;-81
2021/11/17 06:02:55;;;;;;;30.13;22.73;;;;;;;5.56;81.25;99863.69;5054864;28;20201;-80
2021/11/17 06:05:29;;;;;;;27.80;21.53;;;;;;;5.59;80.72;99858.84;5052562;28;20225;-81
2021/11/17 06:07:56;;;;;;;31.03;23.93;;;;;;;5.61;81.56;99862.13;5050069;28;20221;-81
2021/11/17 06:11:04;;;;;;;30.30;23.00;;;;;;;5.65;80.83;99866.06;5069000;28;20206;-82
2021/11/17 06:13:31;;;;;;;29.33;22.23;;;;;;;5.54;81.03;99850.59;5050022;28;20229;-81
2021/11/17 06:16:00;;;;;;;30.80;23.63;;;;;;;5.64;81.14;99876.91;5049136;28;20259;-81
2021/11/17 06:18:31;;;;;;;30.47;22.70;;;;;;;5.63;81.33;99868.09;5067610;28;20237;-82
2021/11/17 06:21:03;;;;;;;31.50;23.60;;;;;;;5.72;81.30;99879.47;5068463;28;20240;-82
2021/11/17 06:23:34;;;;;;;29.87;23.17;;;;;;;5.74;81.63;99878.28;5065542;28;20237;-82
2021/11/17 06:26:05;;;;;;;33.17;24.33;;;;;;;5.74;80.97;99877.44;5067255;28;20271;-80
2021/11/17 06:28:33;;;;;;;30.50;22.63;;;;;;;5.73;81.21;99871.34;5066574;28;20225;-82
2021/11/17 06:31:00;;;;;;;32.23;23.83;;;;;;;5.85;81.00;99884.97;5064611;28;20833;-81
2021/11/17 06:33:33;;;;;;;31.13;23.87;;;;;;;5.83;81.12;99873.72;5050071;28;20225;-81
2021/11/17 06:36:07;;;;;;;31.70;23.50;;;;;;;5.91;81.05;99884.28;5066717;28;20237;-83
2021/11/17 06:38:35;;;;;;;29.80;24.47;;;;;;;5.87;81.23;99877.69;5066050;28;20222;-81
2021/11/17 06:41:14;;;;;;;29.77;23.70;;;;;;;5.98;80.80;99890.50;5083169;28;20228;-81
2021/11/17 06:43:41;;;;;;;33.13;23.53;;;;;;;5.97;81.21;99896.03;5066057;28;20236;-81
2021/11/17 06:46:10;;;;;;;28.77;22.93;;;;;;;6.07;81.15;99905.38;5063539;28;20236;-82
2021/11/17 06:48:37;;;;;;;31.53;23.67;;;;;;;6.11;80.60;99908.50;5045868;28;20288;-81
2021/11/17 06:51:04;;;;;;;32.30;23.40;;;;;;;6.11;80.64;99903.19;5064298;28;20237;-81
2021/11/17 06:53:35;;;;;;;30.50;23.37;;;;;;;6.10;81.09;99897.03;5081860;28;20201;-82
2021/11/17 06:56:04;;;;;;;30.00;23.37;;;;;;;6.17;80.55;99905.09;5065276;28;20236;-82
2021/11/17 06:58:31;;;;;;;29.30;22.77;;;;;;;6.18;81.13;99904.09;5064974;28;20221;-81
2021/11/17 07:00:59;;;;;;;29.40;22.87;;;;;;;6.15;80.28;99891.16;5082190;28;20221;-81
2021/11/17 07:03:34;;;;;;;27.63;22.60;;;;;;;6.25;80.38;99914.81;5080680;28;20867;-82
2021/11/17 07:06:04;;;;;;;29.57;23.20;;;;;;;6.26;79.92;99908.47;5065162;28;20240;-82
2021/11/17 07:08:31;;;;;;;27.33;22.33;;;;;;;6.30;79.77;99912.44;5061821;28;20244;-82
2021/11/17 07:10:58;;;;;;;26.33;21.90;;;;;;;6.35;80.00;99915.34;5059642;28;20245;-82
2021/11/17 07:13:26;;;;;;;29.67;22.10;;;;;;;6.33;79.82;99904.06;5059804;28;20253;-82
2021/11/17 07:15:53;;;;;;;30.13;22.17;;;;;;;6.34;79.30;99913.72;5049635;23;20269;-83
2021/11/17 07:18:26;;;;;;;28.53;21.93;;;;;;;6.24;79.16;99897.22;5028026;28;20230;-82
2021/11/17 07:20:57;;;;;;;28.60;21.83;;;;;;;6.35;79.20;99918.84;5043137;28;20230;-82
2021/11/17 07:23:41;;;;;;;27.13;21.40;;;;;;;6.33;78.85;99912.88;5046945;28;20226;-80
2021/11/17 07:26:14;;;;;;;28.30;21.80;;;;;;;6.38;79.08;99923.81;5048536;28;20249;-80
2021/11/17 07:28:53;;;;;;;26.40;20.73;;;;;;;6.46;79.29;99918.38;5048575;28;20218;-80
2021/11/17 07:31:24;;;;;;;27.10;21.43;;;;;;;6.43;78.49;99912.59;5045284;28;20230;-80
2021/11/17 07:33:55;;;;;;;26.87;21.00;;;;;;;6.43;77.79;99913.44;5046481;28;20241;-80
2021/11/17 07:36:27;;;;;;;26.90;20.40;;;;;;;6.50;78.08;99926.81;5031157;28;20230;-80
2021/11/17 07:39:13;;;;;;;25.67;20.77;;;;;;;6.50;78.15;99916.97;5080199;23;20240;-80
2021/11/17 07:41:48;;;;;;;26.50;21.27;;;;;;;6.60;77.90;99924.69;5065100;28;20213;-81
2021/11/17 07:44:17;;;;;;;25.63;20.17;;;;;;;6.64;77.45;99928.63;5064046;28;20227;-80
2021/11/17 07:46:47;;;;;;;26.43;20.73;;;;;;;6.67;77.41;99928.25;5086232;28;20244;-80
2021/11/17 07:49:16;;;;;;;26.97;21.03;;;;;;;6.72;77.43;99936.47;5064734;23;20202;-81
2021/11/17 07:51:44;;;;;;;27.70;20.20;;;;;;;6.80;76.94;99935.56;5072294;23;20277;-81
2021/11/17 07:54:11;;;;;;;29.10;21.60;;;;;;;6.82;76.80;99931.69;5066199;23;20268;-80
2021/11/17 07:56:42;;;;;;;26.40;21.57;;;;;;;6.90;76.62;99934.25;5041341;23;20235;-81
2021/11/17 07:59:19;;;;;;;29.53;21.33;;;;;;;6.93;76.32;99935.72;5069648;28;20206;-81
2021/11/17 08:01:49;;;;;;;27.90;21.97;;;;;;;6.94;76.36;99940.03;5080041;23;20217;-81
2021/11/17 08:04:33;;;;;;;32.20;22.13;;;;;;;6.94;76.22;99934.69;5051100;28;20229;-81
2021/11/17 08:07:22;;;;;;;26.50;20.77;;;;;;;6.99;76.33;99937.63;5096125;23;20662;-81
2021/11/17 08:09:50;;;;;;;27.97;20.87;;;;;;;7.06;75.60;99947.31;5090955;28;20220;-80
2021/11/17 08:12:23;;;;;;;28.53;21.43;;;;;;;7.06;76.38;99946.50;5116763;22;20651;-81
2021/11/17 08:14:51;;;;;;;24.60;20.60;;;;;;;7.14;75.86;99948.22;5075626;28;20223;-81
2021/11/17 08:17:21;;;;;;;32.30;21.87;;;;;;;7.22;75.82;99951.59;5109412;28;20284;-81
2021/11/17 08:19:48;;;;;;;26.43;20.90;;;;;;;7.21;75.84;99949.94;5109779;28;20225;-81
2021/11/17 08:22:20;;;;;;;25.53;20.60;;;;;;;7.21;75.43;99946.44;5115212;22;20232;-80
2021/11/17 08:24:49;;;;;;;26.33;20.67;;;;;;;7.31;75.43;99953.13;5075546;28;20225;-80
2021/11/17 08:27:19;;;;;;;26.17;21.43;;;;;;;7.20;75.38;99940.28;5106647;28;20285;-80
2021/11/17 08:29:53;;;;;;;25.30;20.40;;;;;;;7.42;75.25;99962.41;5107368;28;20184;-80
2021/11/17 08:32:21;;;;;;;29.53;21.47;;;;;;;7.45;74.92;99965.56;5088536;28;20228;-81
2021/11/17 08:34:50;;;;;;;28.30;21.23;;;;;;;7.51;74.40;99963.97;5085876;23;20296;-80
2021/11/17 08:37:18;;;;;;;28.30;21.70;;;;;;;7.55;74.77;99973.22;5067055;28;20197;-81
2021/11/17 08:39:46;;;;;;;29.13;21.87;;;;;;;7.55;74.67;99962.56;5047898;28;20233;-80
2021/11/17 08:42:18;;;;;;;29.33;22.07;;;;;;;7.65;74.58;99964.91;5065985;28;20239;-81
2021/11/17 08:44:46;;;;;;;27.47;21.33;;;;;;;7.74;74.65;99963.75;5066191;28;20273;-80
2021/11/17 08:47:16;;;;;;;28.53;21.17;;;;;;;7.80;74.10;99971.78;5063696;28;20716;-80
2021/11/17 08:49:43;;;;;;;27.07;21.73;;;;;;;7.81;73.51;99972.63;5036323;23;20234;-80
2021/11/17 08:52:11;;;;;;;27.73;21.73;;;;;;;7.89;74.29;99973.28;4991337;28;20237;-80
2021/11/17 08:54:42;;;;;;;29.37;21.83;;;;;;;7.85;74.01;99972.03;4992678;28;20541;-81
2021/11/17 08:57:15;;;;;;;30.77;22.57;;;;;;;7.87;74.26;99972.69;5028376;28;20235;-80
2021/11/17 08:59:52;;;;;;;32.60;23.27;;;;;;;7.94;74.61;99980.72;5011114;28;20658;-80
2021/11/17 09:02:20;;;;;;;29.23;22.87;;;;;;;7.87;74.62;99974.50;4995850;28;20211;-80
2021/11/17 09:04:49;;;;;;;29.17;22.80;;;;;;;7.91;73.84;99986.44;5029216;28;20552;-81
2021/11/17 09:07:16;;;;;;;31.73;23.27;;;;;;;7.83;74.54;99966.09;5010368;28;20544;-81
2021/11/17 09:09:45;;;;;;;31.10;22.83;;;;;;;8.03;74.51;99986.72;5049588;28;20261;-80
2021/11/17 09:12:15;;;;;;;29.83;23.50;;;;;;;8.04;74.20;99983.88;5031708;28;20245;-80
2021/11/17 09:14:41;;;;;;;28.53;22.97;;;;;;;7.93;74.05;100003.09;5015582;28;20245;-80
2021/11/17 09:17:08;;;;;;;30.17;23.20;;;;;;;8.00;75.02;100001.28;5023203;23;20257;31
2021/11/17 09:19:46;;;;;;;31.23;23.57;;;;;;;8.03;73.70;99994.72;4988021;28;20210;-80
2021/11/17 09:22:13;;;;;;;31.37;25.03;;;;;;;8.07;73.93;99990.69;5001382;23;20229;-80
2021/11/17 09:24:41;;;;;;;32.23;25.07;;;;;;;8.03;73.04;99986.72;5049515;28;20526;-80
2021/11/17 09:27:10;;;;;;;30.10;23.37;;;;;;;7.94;73.28;99994.88;5067396;28;20226;-80
2021/11/17 09:29:38;;;;;;;30.23;23.73;;;;;;;8.00;73.36;99998.63;5064421;23;20279;-80
2021/11/17 09:32:06;;;;;;;31.63;24.03;;;;;;;8.11;72.78;100000.78;5085708;28;20225;-80
2021/11/17 09:34:35;;;;;;;29.97;23.33;;;;;;;8.26;72.04;100001.47;5077680;23;20221;-81
2021/11/17 09:37:07;;;;;;;30.43;24.17;;;;;;;8.04;72.38;100002.53;5088602;28;20229;-80
2021/11/17 09:39:38;;;;;;;30.97;24.07;;;;;;;8.06;71.92;99989.84;5071536;28;20233;-81
2021/11/17 09:42:08;;;;;;;31.57;23.63;;;;;;;8.04;72.10;99985.72;5086559;28;20620;-80
2021/11/17 09:44:43;;;;;;;32.53;24.50;;;;;;;8.13;73.02;99995.22;5086716;28;20368;-81
2021/11/17 09:50:05;;;;;;;32.23;24.00;;;;;;;8.07;73.69;100001.34;4983652;28;20300;-80
2021/11/17 09:52:50;;;;;;;31.33;23.70;;;;;;;8.06;73.31;99995.19;5008695;28;20227;-80
2021/11/17 09:55:45;;;;;;;30.90;23.13;;;;;;;8.02;74.15;100006.44;5060192;23;20220;-80
2021/11/17 09:58:20;;;;;;;31.13;24.37;;;;;;;8.03;73.86;99998.22;5067248;22;20228;-80
2021/11/17 10:01:06;;;;;;;33.60;23.73;;;;;;;8.01;73.86;99996.78;5049271;28;20293;-81
2021/11/17 10:03:36;;;;;;;30.27;23.37;;;;;;;8.22;73.30;99999.38;5067799;28;20297;-80
2021/11/17 10:07:21;;;;;;;29.40;23.30;;;;;;;8.25;73.81;100005.19;5068452;28;20225;-80
2021/11/17 10:15:15;;;;;;;31.23;23.27;;;;;;;8.35;74.42;99986.97;5109673;28;20263;-81
2021/11/17 10:17:57;;;;;;;29.17;23.70;;;;;;;8.57;73.90;99998.41;5109029;28;20249;-82
2021/11/17 10:20:52;;;;;;;28.90;23.03;;;;;;;8.65;73.16;100000.09;5090778;28;20661;-80
2021/11/17 10:23:30;;;;;;;31.13;23.10;;;;;;;8.75;72.91;99984.50;5107508;28;20232;-81
2021/11/17 10:25:59;;;;;;;28.23;22.37;;;;;;;8.82;72.10;99993.38;5109073;28;20230;-81
2021/11/17 10:28:41;;;;;;;28.23;22.53;;;;;;;8.80;72.49;99995.44;5108936;28;20182;-80
2021/11/17 10:31:09;;;;;;;26.70;21.97;;;;;;;8.84;72.18;99994.00;5090724;28;20230;-81
2021/11/17 10:34:13;;;;;;;27.10;22.30;;;;;;;8.78;72.68;99995.63;5106305;28;20271;-81
2021/11/17 10:37:10;;;;;;;28.27;23.20;;;;;;;8.90;71.43;99997.72;5104936;28;20216;-84
2021/11/17 10:39:37;;;;;;;29.47;23.17;;;;;;;8.92;71.59;99987.66;5068375;28;20233;-81
2021/11/17 10:42:05;;;;;;;28.13;22.33;;;;;;;8.95;71.22;99976.59;5103355;28;20224;-81
2021/11/17 10:44:47;;;;;;;28.33;22.63;;;;;;;9.02;71.04;99985.44;5100887;28;20238;-81
2021/11/17 10:47:18;;;;;;;31.63;24.27;;;;;;;9.03;71.18;99987.91;5102472;28;20246;-83
2021/11/17 10:49:57;;;;;;;27.90;22.20;;;;;;;9.07;71.39;99993.69;5103975;28;20306;-82
2021/11/17 10:52:32;;;;;;;31.17;22.43;;;;;;;9.04;71.08;99978.03;5086619;28;20242;-82
2021/11/17 10:55:02;;;;;;;29.07;22.27;;;;;;;9.11;71.23;99979.69;5103405;28;20242;-81
2021/11/17 10:57:33;;;;;;;28.77;22.77;;;;;;;9.18;70.68;99971.72;5086409;28;20246;-82
2021/11/17 11:00:01;;;;;;;27.43;22.27;;;;;;;9.13;71.34;99963.47;5083619;28;20228;-81
2021/11/17 11:02:29;;;;;;;29.10;22.43;;;;;;;9.21;70.83;99969.44;5085512;22;20300;-81
2021/11/17 11:05:05;;;;;;;30.27;23.77;;;;;;;9.26;69.14;99963.50;5045647;28;20239;-82
2021/11/17 11:07:49;;;;;;;28.53;23.00;;;;;;;9.37;69.06;99967.44;5064183;28;20251;-81
2021/11/17 11:10:33;;;;;;;29.37;22.83;;;;;;;9.43;69.13;99971.94;5062564;28;20229;-82
2021/11/17 11:13:02;;;;;;;27.03;21.67;;;;;;;9.54;69.09;99971.34;5063492;28;20229;-81
2021/11/17 11:15:38;;;;;;;29.43;22.07;;;;;;;9.58;68.39;99962.72;5063266;28;20240;-81
2021/11/17 11:18:16;;;;;;;28.00;21.63;;;;;;;9.68;67.31;99967.66;5064685;28;20243;-81
2021/11/17 11:20:58;;;;;;;30.10;22.70;;;;;;;9.70;67.97;99968.28;5062724;28;20706;-81
2021/11/17 11:23:46;;;;;;;27.03;22.40;;;;;;;9.57;67.89;99969.09;5063092;28;20242;-82
2021/11/17 11:26:19;;;;;;;32.33;22.33;;;;;;;9.76;67.57;99967.44;5040489;28;20248;-82
2021/11/17 11:28:46;;;;;;;27.13;20.90;;;;;;;9.76;67.03;99970.13;5026476;28;20222;-81
2021/11/17 11:31:12;;;;;;;27.13;22.17;;;;;;;9.64;66.22;99972.59;5043744;28;20233;-81
2021/11/17 11:33:49;;;;;;;26.43;20.90;;;;;;;9.72;66.89;99960.84;5053273;28;20259;-81
2021/11/17 11:36:20;;;;;;;29.40;22.13;;;;;;;9.77;67.17;99961.06;5045167;28;20231;-80
2021/11/17 11:38:53;;;;;;;28.03;21.50;;;;;;;9.83;66.43;99944.19;5044391;28;20268;-82
2021/11/17 11:41:29;;;;;;;27.87;22.07;;;;;;;9.86;66.21;99949.13;5044152;28;20221;-81
2021/11/17 11:44:17;;;;;;;29.20;22.53;;;;;;;9.91;66.68;99954.69;5030428;28;20217;-82
2021/11/17 11:46:56;;;;;;;26.50;21.27;;;;;;;9.93;66.10;99951.81;5045638;28;20225;-81
2021/11/17 11:49:34;;;;;;;23.47;20.37;;;;;;;9.89;65.76;99954.06;5064337;28;20616;-81
2021/11/17 11:52:29;;;;;;;26.30;21.33;;;;;;;9.95;65.81;99950.56;5061370;28;20255;-81
2021/11/17 11:54:56;;;;;;;26.73;20.80;;;;;;;10.06;66.09;99954.47;5023431;28;20233;-81
2021/11/17 11:57:36;;;;;;;29.17;21.57;;;;;;;10.07;64.77;99962.28;5062798;28;20235;-81
2021/11/17 12:00:23;;;;;;;29.77;21.20;;;;;;;9.83;65.23;99962.09;5063615;28;20242;-81
2021/11/17 12:02:59;;;;;;;26.60;20.63;;;;;;;9.76;65.79;99972.78;5046859;28;20232;-83
2021/11/17 12:05:32;;;;;;;26.63;21.07;;;;;;;9.64;65.64;99966.44;5048902;28;20728;-81
2021/11/17 12:08:24;;;;;;;30.50;21.27;;;;;;;9.41;67.08;99960.66;5065096;28;20226;-81
2021/11/17 12:11:12;;;;;;;27.87;21.20;;;;;;;9.42;66.79;99968.47;5039453;28;20233;-83
2021/11/17 12:14:06;;;;;;;26.70;21.13;;;;;;;9.38;67.85;99959.19;5065293;28;20225;-81
2021/11/17 12:16:42;;;;;;;27.20;20.67;;;;;;;9.42;66.82;99967.66;5065926;28;20232;-82
2021/11/17 12:19:31;;;;;;;29.07;21.23;;;;;;;9.33;67.60;99959.00;5065032;28;20249;-80
2021/11/17 12:22:14;;;;;;;28.67;21.03;;;;;;;9.20;68.03;99959.78;5049795;28;20687;-81
2021/11/17 12:25:15;;;;;;;29.73;21.93;;;;;;;9.11;67.95;99958.31;5063589;28;20263;-81
2021/11/17 12:27:43;;;;;;;25.60;20.23;;;;;;;8.99;68.79;99961.78;5060376;28;20226;-81
2021/11/17 12:30:28;;;;;;;27.73;21.60;;;;;;;8.91;69.51;99953.97;5045263;28;20276;-81
2021/11/17 12:33:02;;;;;;;27.87;20.37;;;;;;;8.86;69.10;99957.25;5048962;28;20241;-81
2021/11/17 12:35:33;;;;;;;29.80;22.40;;;;;;;8.66;69.63;99962.50;5030241;28;20214;-81
2021/11/17 12:38:23;;;;;;;26.93;20.60;;;;;;;8.56;69.87;99950.53;5048752;28;20234;-81
2021/11/17 12:40:59;;;;;;;29.13;22.07;;;;;;;8.52;70.57;99960.78;5051296;28;20237;-83
2021/11/17 12:43:58;;;;;;;26.80;21.73;;;;;;;8.49;70.90;99957.69;5031051;28;20264;-81
2021/11/17 12:46:43;;;;;;;29.20;22.30;;;;;;;8.50;71.23;99954.81;5047159;28;20246;-81
2021/11/17 12:49:14;;;;;;;28.43;21.47;;;;;;;8.39;70.89;99958.06;5050762;28;20243;-81
2021/11/17 12:51:48;;;;;;;29.23;21.87;;;;;;;8.26;72.29;99953.41;5066794;28;20231;-81
2021/11/17 12:54:24;;;;;;;29.33;22.17;;;;;;;8.23;72.48;99950.31;5064160;28;20235;-83
2021/11/17 12:57:28;;;;;;;28.53;22.33;;;;;;;8.29;72.19;99958.41;5040355;28;20271;-81
2021/11/17 13:00:20;;;;;;;28.40;22.63;;;;;;;8.32;73.15;99960.69;5050349;28;20208;-81
2021/11/17 13:02:51;;;;;;;26.67;21.47;;;;;;;8.39;73.14;99958.06;5066638;28;20225;-81
2021/11/17 13:05:42;;;;;;;31.00;21.83;;;;;;;8.43;72.76;99940.63;5068730;28;20619;-81
2021/11/17 13:08:11;;;;;;;28.90;21.57;;;;;;;8.54;72.22;99949.91;5067643;28;20286;-83
2021/11/17 13:10:58;;;;;;;28.60;22.47;;;;;;;8.61;71.55;99962.25;5089366;22;20216;-81
2021/11/17 13:13:39;;;;;;;27.23;21.47;;;;;;;8.55;71.99;99954.22;5069849;28;20221;-81
2021/11/17 13:16:38;;;;;;;28.97;20.30;;;;;;;8.57;72.15;99953.00;5071262;28;20227;-80
2021/11/17 13:19:30;;;;;;;28.33;20.90;;;;;;;8.64;71.85;99945.84;5066708;28;20229;-82
2021/11/17 13:22:00;;;;;;;24.93;19.23;;;;;;;8.59;71.97;99934.91;5065375;28;20225;-81
2021/11/17 13:24:36;;;;;;;24.77;19.03;;;;;;;8.63;71.26;99938.84;5070398;28;20230;-82
2021/11/17 13:27:07;;;;;;;22.37;18.07;;;;;;;8.65;71.57;99944.81;5089247;28;20636;-81
2021/11/17 13:29:51;;;;;;;22.90;17.00;;;;;;;8.70;70.46;99945.03;5068223;28;20266;-81
2021/11/17 13:32:26;;;;;;;24.33;18.30;;;;;;;8.59;71.48;99942.94;5085815;28;20221;-82
2021/11/17 13:34:55;;;;;;;25.20;19.97;;;;;;;8.61;71.68;99948.09;5089014;28;20250;-81
2021/11/17 13:37:37;;;;;;;25.23;19.97;;;;;;;8.56;71.85;99946.00;5068634;28;20232;-81
2021/11/17 13:40:29;;;;;;;25.10;19.13;;;;;;;8.63;71.71;99949.53;5086039;28;20227;-81
2021/11/17 13:42:57;;;;;;;23.27;18.33;;;;;;;8.58;71.24;99946.66;5086592;28;20209;-80
2021/11/17 13:45:29;;;;;;;23.03;17.93;;;;;;;8.58;71.32;99960.00;5069129;28;20231;-82
2021/11/17 13:47:57;;;;;;;23.20;18.13;;;;;;;8.49;71.75;99939.81;5071438;28;20287;-81
2021/11/17 13:50:30;;;;;;;23.40;17.90;;;;;;;8.53;72.00;99954.44;5067666;28;20233;-80
2021/11/17 13:52:58;;;;;;;22.50;18.20;;;;;;;8.44;72.18;99936.94;5070401;28;20236;-81
2021/11/17 13:55:30;;;;;;;22.23;18.10;;;;;;;8.43;72.02;99943.28;5084939;28;20208;-81
2021/11/17 13:57:58;;;;;;;23.07;17.87;;;;;;;8.40;72.19;99941.00;5083482;28;20224;-81
2021/11/17 14:00:26;;;;;;;24.43;17.87;;;;;;;8.37;72.63;99936.06;5051510;28;20240;-80
2021/11/17 14:02:54;;;;;;;22.03;16.53;;;;;;;8.36;72.51;99940.56;5069256;28;20224;-81
2021/11/17 14:05:24;;;;;;;20.90;16.80;;;;;;;8.23;72.48;99939.66;5068267;28;20607;-82
2021/11/17 14:07:53;;;;;;;21.27;16.13;;;;;;;8.30;72.48;99949.38;5069207;28;20232;-80
2021/11/17 14:10:23;;;;;;;21.40;16.47;;;;;;;8.25;72.65;99940.28;5069194;28;20273;-80
2021/11/17 14:12:51;;;;;;;22.47;16.53;;;;;;;8.19;72.58;99936.56;5084703;28;20225;-80
2021/11/17 14:15:19;;;;;;;21.80;16.90;;;;;;;8.22;73.28;99938.81;5085226;28;20227;-81
2021/11/17 14:17:50;;;;;;;24.90;18.00;;;;;;;8.09;73.04;99933.41;5085629;28;20229;-81
2021/11/17 14:20:26;;;;;;;21.70;18.20;;;;;;;8.22;73.04;99949.50;5062511;23;20228;-81
2021/11/17 14:22:56;;;;;;;24.53;18.23;;;;;;;8.17;72.73;99948.44;5102811;28;20228;-81
2021/11/17 14:25:28;;;;;;;25.20;18.43;;;;;;;8.11;73.50;99946.56;5107106;28;20237;-81
2021/11/17 14:28:20;;;;;;;24.67;19.13;;;;;;;8.16;73.15;99954.81;5106979;28;20233;-81
2021/11/17 14:31:10;;;;;;;27.17;20.17;;;;;;;8.18;73.27;99948.25;5088730;28;20220;-81
2021/11/17 14:33:37;;;;;;;34.37;20.53;;;;;;;8.14;73.70;99946.16;5103656;28;20228;-81
2021/11/17 14:36:09;;;;;;;27.83;20.23;;;;;;;8.11;73.42;99938.56;5088774;28;20231;-81
2021/11/17 14:38:38;;;;;;;36.00;22.27;;;;;;;8.13;73.59;99948.00;5090570;28;20221;-81
2021/11/17 14:41:07;;;;;;;25.70;19.33;;;;;;;8.14;73.57;99951.50;5070462;28;20228;-80
2021/11/17 14:43:34;;;;;;;25.67;19.90;;;;;;;8.01;73.68;99946.09;5087510;28;20224;-81
2021/11/17 14:46:01;;;;;;;24.50;19.10;;;;;;;8.04;73.86;99940.34;5087706;28;20312;-82
2021/11/17 14:48:28;;;;;;;27.53;18.83;;;;;;;7.91;74.27;99944.59;5088116;28;20250;-81
2021/11/17 14:50:56;;;;;;;26.30;18.53;;;;;;;7.90;74.09;99934.94;5085468;28;20229;-81
2021/11/17 14:53:39;;;;;;;27.47;18.97;;;;;;;7.92;74.42;99954.25;5070178;28;20238;-81